Genola, Minnesota
Current Conditions -  °F | °C
As of 4:58 PM on Wednesday 26 Nov 2014 (Local Time) from KLXL Reporting Station
Clear Clear  
Wind Chill:   Ceiling: Unl
Heat Index: 18°   Visibility: 10mi
Dew Point:   Wind: 6mph
Humidity: 53%   Direction: 350°N
Pressure: 30.31"   Gusts: NA
Location:  46.0261°N, 94.0607°W
Report Text: KLXL 262258Z AUTO 35005KT 10SM CLR M08/M16 A3031 RMK AO2
Loading
Personal Weather Stations






























Interactive Weather Map New forecast layout! Learn more

10-Day Weather Forecast

Advertisements
Track Severe Weather on mobile